createdAt,value
2018-08-06T00:00:51.302Z,14.12
2018-08-06T00:01:51.385Z,14.07
2018-08-06T00:02:51.208Z,13.97
2018-08-06T00:03:51.339Z,13.98
2018-08-06T00:04:51.218Z,13.95
2018-08-06T00:05:51.359Z,13.95
2018-08-06T00:06:51.570Z,13.93
2018-08-06T00:07:51.262Z,13.86
2018-08-06T00:08:51.274Z,13.91
2018-08-06T00:09:51.401Z,13.86
2018-08-06T00:10:51.286Z,13.94
2018-08-06T00:11:51.627Z,13.87
2018-08-06T00:12:51.439Z,13.98
2018-08-06T00:13:51.331Z,13.95
2018-08-06T00:14:51.335Z,13.98
2018-08-06T00:15:51.351Z,14.01
2018-08-06T00:16:51.555Z,14.08
2018-08-06T00:17:51.371Z,14.13
2018-08-06T00:18:51.385Z,14.05
2018-08-06T00:19:51.395Z,14.16
2018-08-06T00:20:51.532Z,14.05
2018-08-06T00:21:51.612Z,14.07
2018-08-06T00:22:51.423Z,14.07
2018-08-06T00:23:51.444Z,14.23
2018-08-06T00:24:51.449Z,14.23
2018-08-06T00:25:51.465Z,14.23
2018-08-06T00:26:51.671Z,14.15
2018-08-06T00:27:51.613Z,14.26
2018-08-06T00:28:51.493Z,14.34
2018-08-06T00:29:51.635Z,14.30
2018-08-06T00:30:51.522Z,14.30
2018-08-06T00:31:51.678Z,14.45
2018-08-06T00:32:51.670Z,14.37
2018-08-06T00:33:51.677Z,14.36
2018-08-06T00:34:51.892Z,14.48
2018-08-06T00:35:51.580Z,14.53
2018-08-06T00:36:51.590Z,14.52
2018-08-06T00:37:51.726Z,14.66
2018-08-06T00:38:51.620Z,14.59
2018-08-06T00:39:51.892Z,14.55
2018-08-06T00:40:51.756Z,14.55
2018-08-06T00:41:51.856Z,14.56
2018-08-06T00:42:51.784Z,14.58
2018-08-06T00:43:51.671Z,14.56
2018-08-06T00:44:51.807Z,14.68
2018-08-06T00:45:51.687Z,14.66
2018-08-06T00:46:52.029Z,14.62
2018-08-06T00:47:51.751Z,14.68
2018-08-06T00:48:51.757Z,14.71
2018-08-06T00:49:51.858Z,14.70
2018-08-06T00:50:51.877Z,14.74
2018-08-06T00:51:52.088Z,14.78
2018-08-06T00:52:51.773Z,14.73
2018-08-06T00:53:51.907Z,14.85
2018-08-06T00:54:51.795Z,14.82
2018-08-06T00:55:51.934Z,14.82
2018-08-06T00:56:52.092Z,14.86
2018-08-06T00:57:51.954Z,14.85
2018-08-06T00:58:51.877Z,14.86
2018-08-06T00:59:51.972Z,14.82
2018-08-06T01:00:51.983Z,14.86
2018-08-06T01:01:52.229Z,14.82
2018-08-06T01:02:52.010Z,14.90
2018-08-06T01:03:51.897Z,14.90
2018-08-06T01:04:51.913Z,14.99
2018-08-06T01:05:52.045Z,14.85
2018-08-06T01:06:52.055Z,14.94
2018-08-06T01:07:52.138Z,14.92
2018-08-06T01:08:52.084Z,14.87
2018-08-06T01:09:52.091Z,14.85
2018-08-06T01:10:51.980Z,14.85
2018-08-06T01:11:52.116Z,14.89
2018-08-06T01:12:52.330Z,14.92
2018-08-06T01:13:52.012Z,14.87
2018-08-06T01:14:52.029Z,14.92
2018-08-06T01:15:52.073Z,14.92
2018-08-06T01:16:52.083Z,14.85
2018-08-06T01:17:52.067Z,14.86
2018-08-06T01:18:52.396Z,14.85
2018-08-06T01:19:52.093Z,14.90
2018-08-06T01:20:52.221Z,14.86
2018-08-06T01:21:52.104Z,14.79
2018-08-06T01:22:52.243Z,14.79
2018-08-06T01:23:52.255Z,14.79
2018-08-06T01:24:52.339Z,14.85
2018-08-06T01:25:52.284Z,14.81
2018-08-06T01:26:52.288Z,14.89
2018-08-06T01:27:52.305Z,14.86
2018-08-06T01:28:52.317Z,14.92
2018-08-06T01:29:52.195Z,14.86
2018-08-06T01:30:52.540Z,14.86
2018-08-06T01:31:52.223Z,14.89
2018-08-06T01:32:52.236Z,14.96
2018-08-06T01:33:52.239Z,14.93
2018-08-06T01:34:52.265Z,14.89
2018-08-06T01:35:52.472Z,14.90
2018-08-06T01:36:52.402Z,14.87
2018-08-06T01:37:52.289Z,14.87
2018-08-06T01:38:52.429Z,14.86
2018-08-06T01:39:52.320Z,14.92
2018-08-06T01:40:52.519Z,14.90
2018-08-06T01:41:52.337Z,14.85
2018-08-06T01:42:52.476Z,14.89
2018-08-06T01:43:52.354Z,14.90
2018-08-06T01:44:52.375Z,14.90
2018-08-06T01:45:52.772Z,14.92
2018-08-06T01:46:52.436Z,14.97
2018-08-06T01:47:52.527Z,14.97
2018-08-06T01:48:52.456Z,14.97
2018-08-06T01:49:52.429Z,14.97
2018-08-06T01:50:52.637Z,14.97
2018-08-06T01:51:52.579Z,14.96
2018-08-06T01:52:52.466Z,14.92
2018-08-06T01:53:52.603Z,14.94
2018-08-06T01:54:52.489Z,15.00
2018-08-06T01:55:52.690Z,14.97
2018-08-06T01:56:52.508Z,14.99
2018-08-06T01:57:52.524Z,14.93
2018-08-06T01:58:52.653Z,15.04
2018-08-06T01:59:52.743Z,14.97
2018-08-06T02:00:52.563Z,14.94
2018-08-06T02:01:52.694Z,15.02
2018-08-06T02:02:52.699Z,14.96
2018-08-06T02:03:52.715Z,15.00
2018-08-06T02:04:52.798Z,14.99
2018-08-06T02:05:52.737Z,14.87
2018-08-06T02:06:52.620Z,14.99
2018-08-06T02:07:52.757Z,14.85
2018-08-06T02:08:52.643Z,14.96
2018-08-06T02:09:52.856Z,14.97
2018-08-06T02:10:52.683Z,14.89
2018-08-06T02:11:52.682Z,14.99
2018-08-06T02:12:52.695Z,14.90
2018-08-06T02:13:52.826Z,14.90
2018-08-06T02:14:52.716Z,14.90
2018-08-06T02:15:52.928Z,14.86
2018-08-06T02:16:52.862Z,14.89
2018-08-06T02:17:52.871Z,14.87
2018-08-06T02:18:52.759Z,14.89
2018-08-06T02:19:52.894Z,14.93
2018-08-06T02:20:52.784Z,14.92
2018-08-06T02:21:53.124Z,14.92
2018-08-06T02:22:52.824Z,14.93
2018-08-06T02:23:52.940Z,14.93
2018-08-06T02:24:52.827Z,14.87
2018-08-06T02:25:52.843Z,14.92
2018-08-06T02:26:53.183Z,14.90
2018-08-06T02:27:52.873Z,14.82
2018-08-06T02:28:53.000Z,14.94
2018-08-06T02:29:53.013Z,14.86
2018-08-06T02:30:52.905Z,14.94
2018-08-06T02:31:53.038Z,14.87
2018-08-06T02:32:53.117Z,14.96
2018-08-06T02:33:53.062Z,14.99
2018-08-06T02:34:53.074Z,14.90
2018-08-06T02:35:53.081Z,14.96
2018-08-06T02:36:53.012Z,14.97
2018-08-06T02:37:53.014Z,14.87
2018-08-06T02:38:53.324Z,14.86
2018-08-06T02:39:53.128Z,14.97
2018-08-06T02:40:53.140Z,14.92
2018-08-06T02:41:53.150Z,14.87
2018-08-06T02:42:53.160Z,14.86
2018-08-06T02:43:53.175Z,14.96
2018-08-06T02:44:53.260Z,14.87
2018-08-06T02:45:53.199Z,14.94
2018-08-06T02:46:53.078Z,14.86
2018-08-06T02:47:53.221Z,14.96
2018-08-06T02:48:53.230Z,14.99
2018-08-06T02:49:53.116Z,14.94
2018-08-06T02:50:53.428Z,14.99
2018-08-06T02:51:53.182Z,14.92
2018-08-06T02:52:53.282Z,14.96
2018-08-06T02:53:53.202Z,14.92
2018-08-06T02:54:53.300Z,14.97
2018-08-06T02:55:53.310Z,14.93
2018-08-06T02:56:53.528Z,14.92
2018-08-06T02:57:53.333Z,14.89
2018-08-06T02:58:53.227Z,14.97
2018-08-06T02:59:53.362Z,14.90
2018-08-06T03:00:53.283Z,14.93
2018-08-06T03:01:53.584Z,14.87
2018-08-06T03:02:53.269Z,14.96
2018-08-06T03:03:53.285Z,14.89
2018-08-06T03:04:53.291Z,14.92
2018-08-06T03:05:53.430Z,14.85
2018-08-06T03:06:53.463Z,14.90
2018-08-06T03:07:53.331Z,14.86
2018-08-06T03:08:53.466Z,14.87
2018-08-06T03:09:53.497Z,14.87
2018-08-06T03:10:53.359Z,14.82
2018-08-06T03:11:53.697Z,14.79
2018-08-06T03:12:53.387Z,14.87
2018-08-06T03:13:53.518Z,14.77
2018-08-06T03:14:53.401Z,14.86
2018-08-06T03:15:53.538Z,14.74
2018-08-06T03:16:53.860Z,14.78
2018-08-06T03:17:53.564Z,14.70
2018-08-06T03:18:53.454Z,14.68
2018-08-06T03:19:53.502Z,14.63
2018-08-06T03:20:53.604Z,14.58
2018-08-06T03:21:53.786Z,14.56
2018-08-06T03:22:53.624Z,14.56
2018-08-06T03:23:53.513Z,14.53
2018-08-06T03:24:53.512Z,14.49
2018-08-06T03:25:53.527Z,14.41
2018-08-06T03:26:53.970Z,14.40
2018-08-06T03:27:53.554Z,14.40
2018-08-06T03:28:53.560Z,14.38
2018-08-06T03:29:53.702Z,14.43
2018-08-06T03:30:53.710Z,14.28
2018-08-06T03:31:53.804Z,14.30
2018-08-06T03:32:53.734Z,14.25
2018-08-06T03:33:53.744Z,14.36
2018-08-06T03:34:53.756Z,14.25
2018-08-06T03:35:53.769Z,14.38
2018-08-06T03:36:53.954Z,14.28
2018-08-06T03:37:53.661Z,14.38
2018-08-06T03:38:53.805Z,14.31
2018-08-06T03:39:53.691Z,14.31
2018-08-06T03:40:53.827Z,14.34
2018-08-06T03:41:53.908Z,14.33
2018-08-06T03:42:53.849Z,14.34
2018-08-06T03:43:53.730Z,14.31
2018-08-06T03:44:53.871Z,14.26
2018-08-06T03:45:53.750Z,14.41
2018-08-06T03:46:53.763Z,14.45
2018-08-06T03:47:54.009Z,14.45
2018-08-06T03:48:53.781Z,14.44
2018-08-06T03:49:53.795Z,14.45
2018-08-06T03:50:53.804Z,14.44
2018-08-06T03:51:53.819Z,14.44
2018-08-06T03:52:54.167Z,14.51
2018-08-06T03:53:53.841Z,14.53
2018-08-06T03:54:53.851Z,14.55
2018-08-06T03:55:53.861Z,14.53
2018-08-06T03:56:53.875Z,14.41
2018-08-06T03:57:54.363Z,14.52
2018-08-06T03:58:53.897Z,14.45
2018-08-06T03:59:53.914Z,14.41
2018-08-06T04:00:54.053Z,14.48
2018-08-06T04:01:54.059Z,14.48
2018-08-06T04:02:54.268Z,14.48
2018-08-06T04:03:53.952Z,14.52
2018-08-06T04:04:53.958Z,14.49
2018-08-06T04:05:54.100Z,14.52
2018-08-06T04:06:54.114Z,14.58
2018-08-06T04:07:54.321Z,14.58
2018-08-06T04:08:54.133Z,14.49
2018-08-06T04:09:54.142Z,14.45
2018-08-06T04:10:54.037Z,14.51
2018-08-06T04:11:54.166Z,14.55
2018-08-06T04:12:54.256Z,14.49
2018-08-06T04:13:54.188Z,14.49
2018-08-06T04:14:54.075Z,14.51
2018-08-06T04:15:54.091Z,14.48
2018-08-06T04:16:54.135Z,14.44
2018-08-06T04:17:54.447Z,14.36
2018-08-06T04:18:54.249Z,14.43
2018-08-06T04:19:54.253Z,14.40
2018-08-06T04:20:54.271Z,14.36
2018-08-06T04:21:54.278Z,14.25
2018-08-06T04:22:54.366Z,14.33
2018-08-06T04:23:54.307Z,14.31
2018-08-06T04:24:54.197Z,14.31
2018-08-06T04:25:54.328Z,14.31
2018-08-06T04:26:54.206Z,14.25
2018-08-06T04:27:54.456Z,14.31
2018-08-06T04:28:54.358Z,14.28
2018-08-06T04:29:54.244Z,14.25
2018-08-06T04:30:54.252Z,14.31
2018-08-06T04:31:54.259Z,14.34
2018-08-06T04:32:54.649Z,14.30
2018-08-06T04:33:54.492Z,14.33
2018-08-06T04:34:54.305Z,14.36
2018-08-06T04:35:54.316Z,14.30
2018-08-06T04:36:54.326Z,14.28
2018-08-06T04:37:54.461Z,14.30
2018-08-06T04:38:54.536Z,14.34
2018-08-06T04:39:54.363Z,14.28
2018-08-06T04:40:54.367Z,14.30
2018-08-06T04:41:54.374Z,14.34
2018-08-06T04:42:54.386Z,14.34
2018-08-06T04:43:54.693Z,14.31
2018-08-06T04:44:54.406Z,14.33
2018-08-06T04:45:54.583Z,14.31
2018-08-06T04:46:54.558Z,14.28
2018-08-06T04:47:54.571Z,14.37
2018-08-06T04:48:54.808Z,14.31
2018-08-06T04:49:54.461Z,14.30
2018-08-06T04:50:54.604Z,14.25
2018-08-06T04:51:54.496Z,14.36
2018-08-06T04:52:54.496Z,14.31
2018-08-06T04:53:54.711Z,14.28
2018-08-06T04:54:54.550Z,14.28
2018-08-06T04:55:54.657Z,14.37
2018-08-06T04:56:54.577Z,14.30
2018-08-06T04:57:54.551Z,14.31
2018-08-06T04:58:54.840Z,14.37
2018-08-06T04:59:54.578Z,14.37
2018-08-06T05:00:54.585Z,14.36
2018-08-06T05:01:55.068Z,14.31
2018-08-06T05:02:54.734Z,14.30
2018-08-06T05:03:54.622Z,14.22
2018-08-06T05:04:54.632Z,14.23
2018-08-06T05:05:54.768Z,14.20
2018-08-06T05:06:54.903Z,14.13
2018-08-06T05:07:54.791Z,14.12
2018-08-06T05:08:54.675Z,14.07
2018-08-06T05:09:54.683Z,14.05
2018-08-06T05:10:54.818Z,13.97
2018-08-06T05:11:55.004Z,13.97
2018-08-06T05:12:54.715Z,14.05
2018-08-06T05:13:54.856Z,13.97
2018-08-06T05:14:54.742Z,14.00
2018-08-06T05:15:54.761Z,13.98
2018-08-06T05:16:54.944Z,13.98
2018-08-06T05:17:54.781Z,14.08
2018-08-06T05:18:54.784Z,14.01
2018-08-06T05:19:54.919Z,14.05
2018-08-06T05:20:54.804Z,14.05
2018-08-06T05:21:55.120Z,14.08
2018-08-06T05:22:54.825Z,14.15
2018-08-06T05:23:54.960Z,14.05
2018-08-06T05:24:54.979Z,14.11
2018-08-06T05:25:54.857Z,14.15
2018-08-06T05:26:55.294Z,14.08
2018-08-06T05:27:55.010Z,14.15
2018-08-06T05:28:55.016Z,14.20
2018-08-06T05:29:55.027Z,14.23
2018-08-06T05:30:54.924Z,14.28
2018-08-06T05:31:54.925Z,14.22
2018-08-06T05:32:55.255Z,14.18
2018-08-06T05:33:55.067Z,14.28
2018-08-06T05:34:54.958Z,14.26
2018-08-06T05:35:54.964Z,14.25
2018-08-06T05:36:55.102Z,14.28
2018-08-06T05:37:55.290Z,14.34
2018-08-06T05:38:54.998Z,14.31
2018-08-06T05:39:55.136Z,14.33
2018-08-06T05:40:55.145Z,14.28
2018-08-06T05:41:55.159Z,14.33
2018-08-06T05:42:55.246Z,14.25
2018-08-06T05:43:55.181Z,14.41
2018-08-06T05:44:55.194Z,14.33
2018-08-06T05:45:55.199Z,14.36
2018-08-06T05:46:55.216Z,14.33
2018-08-06T05:47:55.398Z,14.26
2018-08-06T05:48:55.230Z,14.40
2018-08-06T05:49:55.116Z,14.41
2018-08-06T05:50:55.133Z,14.43
2018-08-06T05:51:55.266Z,14.37
2018-08-06T05:52:55.483Z,14.41
2018-08-06T05:53:55.288Z,14.41
2018-08-06T05:54:55.306Z,14.41
2018-08-06T05:55:55.309Z,14.37
2018-08-06T05:56:55.202Z,14.41
2018-08-06T05:57:55.509Z,14.43
2018-08-06T05:58:55.223Z,14.45
2018-08-06T05:59:55.353Z,14.38
2018-08-06T06:00:55.370Z,14.40
2018-08-06T06:01:55.375Z,14.44
2018-08-06T06:02:55.564Z,14.41
2018-08-06T06:03:55.278Z,14.44
2018-08-06T06:04:55.294Z,14.44
2018-08-06T06:05:55.301Z,14.45
2018-08-06T06:06:55.307Z,14.45
2018-08-06T06:07:55.791Z,14.51
2018-08-06T06:08:55.453Z,14.37
2018-08-06T06:09:55.466Z,14.44
2018-08-06T06:10:55.391Z,14.53
2018-08-06T06:11:55.484Z,14.48
2018-08-06T06:12:55.656Z,14.56
2018-08-06T06:13:55.508Z,14.51
2018-08-06T06:14:55.395Z,14.53
2018-08-06T06:15:55.417Z,14.61
2018-08-06T06:16:55.752Z,14.61
2018-08-06T06:17:55.555Z,14.52
2018-08-06T06:18:55.569Z,14.55
2018-08-06T06:19:55.576Z,14.61
2018-08-06T06:20:55.591Z,14.61
2018-08-06T06:21:55.672Z,14.59
2018-08-06T06:22:55.614Z,14.45
2018-08-06T06:23:55.620Z,14.53
2018-08-06T06:24:55.631Z,14.45
2018-08-06T06:25:55.642Z,14.52
2018-08-06T06:26:55.651Z,14.43
2018-08-06T06:27:55.743Z,14.37
2018-08-06T06:28:55.556Z,14.38
2018-08-06T06:29:55.567Z,14.41
2018-08-06T06:30:55.578Z,14.49
2018-08-06T06:31:55.709Z,14.51
2018-08-06T06:32:55.790Z,14.40
2018-08-06T06:33:55.611Z,14.40
2018-08-06T06:34:55.780Z,14.44
2018-08-06T06:35:55.752Z,14.43
2018-08-06T06:36:55.635Z,14.48
2018-08-06T06:37:55.776Z,14.41
2018-08-06T06:38:55.991Z,14.49
2018-08-06T06:39:55.800Z,14.45
2018-08-06T06:40:55.810Z,14.45
2018-08-06T06:41:55.825Z,14.40
2018-08-06T06:42:55.714Z,14.33
2018-08-06T06:43:55.714Z,14.40
2018-08-06T06:44:56.054Z,14.37
2018-08-06T06:45:55.784Z,14.41
2018-08-06T06:46:55.792Z,14.48
2018-08-06T06:47:55.796Z,14.40
2018-08-06T06:48:55.949Z,14.44
2018-08-06T06:49:55.796Z,14.49
2018-08-06T06:50:56.119Z,14.44
2018-08-06T06:51:55.936Z,14.40
2018-08-06T06:52:55.815Z,14.40
2018-08-06T06:53:55.954Z,14.43
2018-08-06T06:54:55.961Z,14.45
2018-08-06T06:55:56.004Z,14.41
2018-08-06T06:56:55.863Z,14.44
2018-08-06T06:57:55.883Z,14.45
2018-08-06T06:58:56.007Z,14.44
2018-08-06T06:59:56.038Z,14.37
2018-08-06T07:00:56.211Z,14.49
2018-08-06T07:01:56.043Z,14.53
2018-08-06T07:02:55.940Z,14.55
2018-08-06T07:03:55.946Z,14.56
2018-08-06T07:04:55.955Z,14.61
2018-08-06T07:05:56.505Z,14.56
2018-08-06T07:06:56.097Z,14.49
2018-08-06T07:07:55.982Z,14.61
2018-08-06T07:08:56.117Z,14.56
2018-08-06T07:09:56.006Z,14.55
2018-08-06T07:10:56.445Z,14.61
2018-08-06T07:11:56.025Z,14.61
2018-08-06T07:12:56.169Z,14.52
2018-08-06T07:13:56.276Z,14.61
2018-08-06T07:14:56.074Z,14.55
2018-08-06T07:15:56.313Z,14.49
2018-08-06T07:16:56.212Z,14.53
2018-08-06T07:17:56.224Z,14.61
2018-08-06T07:18:56.110Z,14.56
2018-08-06T07:19:56.120Z,14.53
2018-08-06T07:20:56.325Z,14.58
2018-08-06T07:21:56.146Z,14.63
2018-08-06T07:22:56.278Z,14.58
2018-08-06T07:23:56.160Z,14.59
2018-08-06T07:24:56.297Z,14.66
2018-08-06T07:25:56.619Z,14.70
2018-08-06T07:26:56.325Z,14.74
2018-08-06T07:27:56.211Z,14.61
2018-08-06T07:28:56.224Z,14.66
2018-08-06T07:29:56.357Z,14.70
2018-08-06T07:30:56.517Z,14.62
2018-08-06T07:31:56.258Z,14.77
2018-08-06T07:32:56.265Z,14.78
2018-08-06T07:33:56.411Z,14.67
2018-08-06T07:34:56.584Z,14.74
2018-08-06T07:35:56.425Z,14.74
2018-08-06T07:36:56.320Z,14.68
2018-08-06T07:37:56.448Z,14.68
2018-08-06T07:38:56.457Z,14.74
2018-08-06T07:39:56.697Z,14.81
2018-08-06T07:40:56.485Z,14.66
2018-08-06T07:41:56.495Z,14.70
2018-08-06T07:42:56.389Z,14.63
2018-08-06T07:43:56.515Z,14.63
2018-08-06T07:44:56.756Z,14.56
2018-08-06T07:45:56.419Z,14.52
2018-08-06T07:46:56.552Z,14.51
2018-08-06T07:47:56.570Z,14.48
2018-08-06T07:48:56.568Z,14.38
2018-08-06T07:49:56.808Z,14.48
2018-08-06T07:50:56.595Z,14.45
2018-08-06T07:51:56.604Z,14.33
2018-08-06T07:52:56.617Z,14.34
2018-08-06T07:53:56.498Z,14.25
2018-08-06T07:54:56.937Z,14.19
2018-08-06T07:55:56.648Z,14.11
2018-08-06T07:56:56.655Z,14.04
2018-08-06T07:57:56.577Z,13.93
2018-08-06T07:58:56.562Z,13.80
2018-08-06T07:59:56.562Z,13.76
2018-08-06T08:00:56.773Z,13.78
2018-08-06T08:01:56.583Z,13.67
2018-08-06T08:02:56.728Z,13.65
2018-08-06T08:03:56.732Z,13.57
2018-08-06T08:04:56.750Z,13.43
2018-08-06T08:05:56.954Z,13.52
2018-08-06T08:06:56.641Z,13.42
2018-08-06T08:07:56.775Z,13.43
2018-08-06T08:08:56.789Z,13.43
2018-08-06T08:09:56.803Z,13.43
2018-08-06T08:10:56.722Z,13.43
2018-08-06T08:11:56.914Z,13.37
2018-08-06T08:12:56.748Z,13.43
2018-08-06T08:13:56.845Z,13.43
2018-08-06T08:14:56.724Z,13.45
2018-08-06T08:15:56.861Z,13.42
2018-08-06T08:16:56.868Z,13.42
2018-08-06T08:17:57.060Z,13.46
2018-08-06T08:18:56.900Z,13.42
2018-08-06T08:19:56.796Z,13.36
2018-08-06T08:20:56.914Z,13.47
2018-08-06T08:21:56.801Z,13.43
2018-08-06T08:22:56.932Z,13.42
2018-08-06T08:23:57.117Z,13.36
2018-08-06T08:24:56.959Z,13.39
2018-08-06T08:25:56.875Z,13.31
2018-08-06T08:26:56.982Z,13.39
2018-08-06T08:27:56.990Z,13.33
2018-08-06T08:28:57.015Z,13.24
2018-08-06T08:29:57.002Z,13.31
2018-08-06T08:30:57.015Z,13.27
2018-08-06T08:31:57.023Z,13.28
2018-08-06T08:32:57.332Z,13.33
2018-08-06T08:33:56.929Z,13.43
2018-08-06T08:34:56.926Z,13.31
2018-08-06T08:35:57.070Z,13.36
2018-08-06T08:36:56.951Z,13.30
2018-08-06T08:37:57.262Z,13.33
2018-08-06T08:38:57.096Z,13.26
2018-08-06T08:39:56.983Z,13.42
2018-08-06T08:40:57.116Z,13.40
2018-08-06T08:41:57.128Z,13.45
2018-08-06T08:42:57.247Z,13.36
2018-08-06T08:43:57.148Z,13.36
2018-08-06T08:44:57.153Z,13.45
2018-08-06T08:45:57.170Z,13.43
2018-08-06T08:46:57.187Z,13.40
2018-08-06T08:47:57.367Z,13.42
2018-08-06T08:48:57.076Z,13.49
2018-08-06T08:49:57.208Z,13.46
2018-08-06T08:50:57.222Z,13.43
2018-08-06T08:51:57.226Z,13.46
2018-08-06T08:52:57.542Z,13.55
2018-08-06T08:53:57.259Z,13.55
2018-08-06T08:54:57.263Z,13.49
2018-08-06T08:55:57.278Z,13.42
2018-08-06T08:56:57.283Z,13.61
2018-08-06T08:57:57.629Z,13.52
2018-08-06T08:58:57.235Z,13.52
2018-08-06T08:59:57.187Z,13.57
2018-08-06T09:00:57.323Z,13.54
2018-08-06T09:01:57.211Z,13.57
2018-08-06T09:02:57.543Z,13.60
2018-08-06T09:03:57.225Z,13.58
2018-08-06T09:04:57.358Z,13.62
2018-08-06T09:05:57.373Z,13.57
2018-08-06T09:06:57.257Z,13.65
2018-08-06T09:07:57.467Z,13.67
2018-08-06T09:08:57.405Z,13.61
2018-08-06T09:09:57.410Z,13.58
2018-08-06T09:10:57.294Z,13.55
2018-08-06T09:11:57.315Z,13.61
2018-08-06T09:12:57.648Z,13.68
2018-08-06T09:13:57.338Z,13.58
2018-08-06T09:14:57.472Z,13.61
2018-08-06T09:15:57.472Z,13.70
2018-08-06T09:16:57.488Z,13.67
2018-08-06T09:17:57.698Z,13.71
2018-08-06T09:18:57.509Z,13.65
2018-08-06T09:19:57.398Z,13.67
2018-08-06T09:20:57.530Z,13.68
2018-08-06T09:22:57.748Z,13.75
2018-08-06T09:23:57.431Z,13.73
2018-08-06T09:24:57.447Z,13.78
2018-08-06T09:25:57.580Z,13.78
2018-08-06T09:26:57.592Z,13.75
2018-08-06T09:27:57.694Z,13.79
2018-08-06T09:28:57.491Z,13.78
2018-08-06T09:29:57.498Z,13.79
2018-08-06T09:30:57.631Z,13.73
2018-08-06T09:31:57.647Z,13.80
2018-08-06T09:32:57.689Z,13.93
2018-08-06T09:33:57.721Z,13.89
2018-08-06T09:34:57.679Z,13.94
2018-08-06T09:35:57.682Z,13.87
2018-08-06T09:36:57.998Z,13.91
2018-08-06T09:37:57.711Z,13.83
2018-08-06T09:38:57.585Z,13.89
2018-08-06T09:39:57.725Z,13.85
2018-08-06T09:40:57.660Z,13.80
2018-08-06T09:41:57.949Z,13.78
2018-08-06T09:42:57.634Z,13.75
2018-08-06T09:43:57.647Z,13.75
2018-08-06T09:44:57.651Z,13.76
2018-08-06T09:45:57.790Z,13.68
2018-08-06T09:46:57.802Z,13.68
2018-08-06T09:47:58.107Z,13.60
2018-08-06T09:48:57.822Z,13.68
2018-08-06T09:49:57.703Z,13.68
2018-08-06T09:50:57.714Z,13.73
2018-08-06T09:51:57.851Z,13.76
2018-08-06T09:52:58.073Z,13.73
2018-08-06T09:53:57.869Z,13.75
2018-08-06T09:54:57.884Z,13.67
2018-08-06T09:55:57.808Z,13.68
2018-08-06T09:56:57.820Z,13.78
2018-08-06T09:57:57.934Z,13.71
2018-08-06T09:58:57.920Z,13.70
2018-08-06T09:59:58.134Z,13.68
2018-08-06T10:00:57.938Z,13.73
2018-08-06T10:01:57.829Z,13.71
2018-08-06T10:02:57.965Z,13.75
2018-08-06T10:03:57.973Z,13.75
2018-08-06T10:04:58.056Z,13.75
2018-08-06T10:05:58.167Z,13.75
2018-08-06T10:06:58.007Z,13.78
2018-08-06T10:07:58.012Z,13.85
2018-08-06T10:08:57.894Z,13.86
2018-08-06T10:09:58.232Z,13.85
2018-08-06T10:10:57.953Z,13.94
2018-08-06T10:11:58.084Z,13.95
2018-08-06T10:12:57.945Z,13.97
2018-08-06T10:13:57.952Z,13.94
2018-08-06T10:14:58.293Z,14.01
2018-08-06T10:15:58.093Z,14.03
2018-08-06T10:16:57.981Z,14.01
2018-08-06T10:17:58.123Z,14.01
2018-08-06T10:18:58.185Z,14.05
2018-08-06T10:19:58.342Z,14.07
2018-08-06T10:20:58.146Z,14.11
2018-08-06T10:21:58.157Z,14.11
2018-08-06T10:22:58.048Z,14.04
2018-08-06T10:23:58.066Z,14.13
2018-08-06T10:24:58.268Z,14.18
2018-08-06T10:25:58.199Z,14.05
2018-08-06T10:26:58.086Z,14.18
2018-08-06T10:27:58.224Z,14.22
2018-08-06T10:28:58.232Z,14.19
2018-08-06T10:29:58.447Z,14.12
2018-08-06T10:30:58.251Z,14.15
2018-08-06T10:31:58.266Z,14.20
2018-08-06T10:32:58.280Z,14.26
2018-08-06T10:33:58.156Z,14.22
2018-08-06T10:34:58.326Z,14.22
2018-08-06T10:35:58.310Z,14.23
2018-08-06T10:36:58.193Z,14.23
2018-08-06T10:37:58.223Z,14.16
2018-08-06T10:38:58.424Z,14.23
2018-08-06T10:39:58.236Z,14.25
2018-08-06T10:40:58.234Z,14.15
2018-08-06T10:41:58.245Z,14.18
2018-08-06T10:42:58.388Z,14.26
2018-08-06T10:43:58.608Z,14.26
2018-08-06T10:44:58.399Z,14.25
2018-08-06T10:45:58.423Z,14.23
2018-08-06T10:46:58.298Z,14.22
2018-08-06T10:47:58.440Z,14.20
2018-08-06T10:48:58.646Z,14.22
2018-08-06T10:49:58.328Z,14.31
2018-08-06T10:50:58.347Z,14.33
2018-08-06T10:51:58.358Z,14.25
2018-08-06T10:52:58.487Z,14.31
2018-08-06T10:53:58.618Z,14.26
2018-08-06T10:54:58.385Z,14.23
2018-08-06T10:55:58.525Z,14.25
2018-08-06T10:56:58.530Z,14.25
2018-08-06T10:57:58.450Z,14.25
2018-08-06T10:58:58.433Z,14.25
2018-08-06T10:59:58.638Z,14.23
2018-08-06T11:00:58.581Z,14.23
2018-08-06T11:01:58.511Z,14.25
2018-08-06T11:02:58.593Z,14.33
2018-08-06T11:03:58.505Z,14.30
2018-08-06T11:04:58.694Z,14.28
2018-08-06T11:05:58.543Z,14.28
2018-08-06T11:06:58.641Z,14.45
2018-08-06T11:07:58.649Z,14.43
2018-08-06T11:08:58.534Z,14.38
2018-08-06T11:09:58.878Z,14.45
2018-08-06T11:10:58.570Z,14.41
2018-08-06T11:11:58.691Z,14.43
2018-08-06T11:12:58.578Z,14.51
2018-08-06T11:13:58.638Z,14.49
2018-08-06T11:14:58.731Z,14.56
2018-08-06T11:15:58.940Z,14.59
2018-08-06T11:16:58.755Z,14.58
2018-08-06T11:17:58.767Z,14.63
2018-08-06T11:18:58.648Z,14.68
2018-08-06T11:19:58.786Z,14.66
2018-08-06T11:20:58.998Z,14.71
2018-08-06T11:21:58.811Z,14.71
2018-08-06T11:22:58.816Z,14.71
2018-08-06T11:23:58.833Z,14.66
2018-08-06T11:24:58.721Z,14.63
2018-08-06T11:25:59.053Z,14.63
2018-08-06T11:26:58.741Z,14.71
2018-08-06T11:27:58.878Z,14.61
2018-08-06T11:28:58.775Z,14.55
2018-08-06T11:29:58.799Z,14.40
2018-08-06T11:30:58.979Z,14.40
2018-08-06T11:31:58.791Z,14.41
2018-08-06T11:32:58.927Z,14.37
2018-08-06T11:33:58.803Z,14.40
2018-08-06T11:34:58.955Z,14.30
2018-08-06T11:35:58.990Z,14.38
2018-08-06T11:36:58.973Z,14.36
2018-08-06T11:37:58.868Z,14.33
2018-08-06T11:38:59.192Z,14.38
2018-08-06T11:39:58.890Z,14.36
2018-08-06T11:40:59.020Z,14.26
2018-08-06T11:41:58.896Z,14.36
2018-08-06T11:42:58.910Z,14.23
2018-08-06T11:43:59.279Z,14.31
2018-08-06T11:44:59.066Z,14.20
2018-08-06T11:45:59.077Z,14.25
2018-08-06T11:46:58.964Z,14.23
2018-08-06T11:47:59.097Z,14.18
2018-08-06T11:48:59.240Z,14.23
2018-08-06T11:49:59.121Z,14.26
2018-08-06T11:50:59.134Z,14.20
2018-08-06T11:51:59.030Z,14.22
2018-08-06T11:52:59.025Z,14.23
2018-08-06T11:53:59.234Z,14.34
2018-08-06T11:54:59.047Z,14.30
2018-08-06T11:55:59.182Z,14.28
2018-08-06T11:56:59.070Z,14.33
2018-08-06T11:57:59.080Z,14.34
2018-08-06T11:58:59.345Z,14.37
2018-08-06T11:59:59.227Z,14.31
2018-08-06T12:00:59.236Z,14.25
2018-08-06T12:01:59.386Z,14.36
2018-08-06T12:02:59.140Z,14.28
2018-08-06T12:03:59.154Z,14.23
2018-08-06T12:04:59.285Z,14.33
2018-08-06T12:05:59.399Z,14.23
2018-08-06T12:06:59.601Z,14.31
2018-08-06T12:07:59.194Z,14.30
2018-08-06T12:08:59.201Z,14.38
2018-08-06T12:09:59.207Z,14.30
2018-08-06T12:10:59.227Z,14.44
2018-08-06T12:11:59.560Z,14.52
2018-08-06T12:12:59.421Z,14.53
2018-08-06T12:13:59.258Z,14.58
2018-08-06T12:14:59.370Z,14.63
2018-08-06T12:15:59.401Z,14.73
2018-08-06T12:16:59.486Z,14.77
2018-08-06T12:17:59.423Z,14.86
2018-08-06T12:18:59.407Z,14.82
2018-08-06T12:19:59.445Z,14.97
2018-08-06T12:20:59.419Z,15.08
2018-08-06T12:21:59.538Z,15.10
2018-08-06T12:22:59.364Z,15.23
2018-08-06T12:23:59.363Z,15.30
2018-08-06T12:24:59.376Z,15.47
2018-08-06T12:25:59.560Z,15.39
2018-08-06T12:26:59.524Z,15.27
2018-08-06T12:27:59.687Z,15.44
2018-08-06T12:28:59.430Z,15.45
2018-08-06T12:29:59.564Z,15.59
2018-08-06T12:30:59.480Z,15.60
2018-08-06T12:31:59.467Z,15.67
2018-08-06T12:32:59.674Z,15.80
2018-08-06T12:33:59.487Z,15.84
2018-08-06T12:34:59.490Z,15.92
2018-08-06T12:35:59.506Z,16.05
2018-08-06T12:36:59.516Z,15.98
2018-08-06T12:37:59.831Z,15.99
2018-08-06T12:38:59.542Z,15.92
2018-08-06T12:39:59.554Z,15.83
2018-08-06T12:40:59.691Z,15.78
2018-08-06T12:41:59.704Z,15.72
2018-08-06T12:43:00.017Z,15.70
2018-08-06T12:43:59.600Z,15.66
2018-08-06T12:44:59.621Z,15.63
2018-08-06T12:45:59.754Z,15.66
2018-08-06T12:46:59.769Z,15.66
2018-08-06T12:47:59.928Z,15.66
2018-08-06T12:48:59.661Z,15.66
2018-08-06T12:49:59.670Z,15.67
2018-08-06T12:50:59.816Z,15.65
2018-08-06T12:51:59.826Z,15.67
2018-08-06T12:52:59.923Z,15.65
2018-08-06T12:53:59.731Z,15.66